Time;durP1;ratioP1;P1;durP2;ratioP2;P2;SDS_P1;SDS_P2;PMS_P1;PMS_P2;Temp;Humidity;BMP_temperature;BMP_pressure;BME280_temperature;BME280_humidity;BME280_pressure;Samples;Min_cycle;Max_cycle;Signal;HPM_P1;HPM_P2
2022/07/17 00:01:05;;;;;;;2.30;1.33;;;;;;;7.64;100.00;97526.28;10407944;28;20695;-72
2022/07/17 00:06:05;;;;;;;3.77;1.50;;;;;;;7.55;100.00;97519.19;10407566;28;20274;-71
2022/07/17 00:11:06;;;;;;;1.50;0.90;;;;;;;7.45;100.00;97519.88;10407559;28;20185;-71
2022/07/17 00:16:06;;;;;;;4.53;1.10;;;;;;;7.36;100.00;97527.59;10407766;28;20188;-71
2022/07/17 00:21:07;;;;;;;4.10;1.10;;;;;;;7.23;100.00;97525.91;10407459;28;20220;-71
2022/07/17 00:26:08;;;;;;;4.37;1.17;;;;;;;7.19;100.00;97526.25;10407349;28;20193;-71
2022/07/17 00:31:08;;;;;;;1.63;1.10;;;;;;;7.15;100.00;97530.84;10413279;28;20188;-71
2022/07/17 00:36:09;;;;;;;2.87;1.10;;;;;;;7.01;100.00;97531.88;10414955;28;20200;-71
2022/07/17 00:41:09;;;;;;;5.50;1.30;;;;;;;6.90;100.00;97534.44;10414582;28;20295;-71
2022/07/17 00:46:09;;;;;;;3.90;1.57;;;;;;;6.73;100.00;97535.69;10414367;28;20197;-71
2022/07/17 00:51:10;;;;;;;3.53;1.20;;;;;;;6.67;100.00;97542.16;10414401;28;20359;-71
2022/07/17 00:56:11;;;;;;;5.37;1.40;;;;;;;6.64;100.00;97541.56;10413360;28;20200;-71
2022/07/17 01:01:11;;;;;;;3.53;1.20;;;;;;;6.55;100.00;97535.25;10412343;28;20216;-71
2022/07/17 01:06:12;;;;;;;4.07;1.47;;;;;;;6.50;100.00;97534.75;10413634;28;20708;-72
2022/07/17 01:11:12;;;;;;;3.37;1.40;;;;;;;6.45;100.00;97537.69;10413500;28;20663;-71
2022/07/17 01:16:13;;;;;;;1.17;1.00;;;;;;;6.56;100.00;97542.94;10413283;28;20199;-70
2022/07/17 01:21:13;;;;;;;1.63;1.10;;;;;;;6.49;100.00;97557.34;10412823;28;20274;-71
2022/07/17 01:26:13;;;;;;;5.23;1.70;;;;;;;6.41;100.00;97551.84;10412902;28;20242;-71
2022/07/17 01:31:14;;;;;;;2.40;1.00;;;;;;;6.47;100.00;97558.41;10412360;28;20191;-71
2022/07/17 01:36:14;;;;;;;7.33;1.40;;;;;;;6.38;100.00;97558.09;10412526;28;20649;-71
2022/07/17 01:41:14;;;;;;;4.13;1.60;;;;;;;6.30;100.00;97562.22;10411426;28;20672;-71
2022/07/17 01:46:15;;;;;;;6.00;1.40;;;;;;;6.40;100.00;97558.00;10412594;28;20551;-71
2022/07/17 01:51:15;;;;;;;4.77;1.20;;;;;;;6.35;100.00;97553.13;10412305;28;20427;-71
2022/07/17 01:56:16;;;;;;;2.20;1.30;;;;;;;6.28;100.00;97553.66;10411595;28;20196;-71
2022/07/17 02:01:16;;;;;;;2.77;1.30;;;;;;;6.20;100.00;97556.81;10411700;28;20562;-71
2022/07/17 02:06:16;;;;;;;5.93;1.43;;;;;;;6.15;100.00;97553.72;10410809;28;20650;-71
2022/07/17 02:11:18;;;;;;;3.70;1.57;;;;;;;6.15;100.00;97559.72;10410865;28;20610;-71
2022/07/17 02:16:18;;;;;;;5.87;1.43;;;;;;;6.20;100.00;97565.47;10411023;28;20657;-71
2022/07/17 02:21:19;;;;;;;5.40;1.50;;;;;;;6.20;100.00;97559.41;10410754;28;20208;-71
2022/07/17 02:26:20;;;;;;;2.00;1.20;;;;;;;6.10;100.00;97567.03;10410262;28;20619;-71
2022/07/17 02:31:20;;;;;;;2.63;1.20;;;;;;;6.13;100.00;97553.00;10410030;28;20228;-71
2022/07/17 02:36:21;;;;;;;2.03;1.27;;;;;;;6.07;100.00;97562.06;10409828;28;20290;-71
2022/07/17 02:41:21;;;;;;;7.80;1.70;;;;;;;6.00;100.00;97561.66;10409999;28;20207;-71
2022/07/17 02:46:21;;;;;;;3.57;1.67;;;;;;;5.98;100.00;97565.28;10410563;28;20200;-70
2022/07/17 02:51:22;;;;;;;2.20;1.30;;;;;;;5.98;100.00;97560.91;10408940;28;20200;-71
2022/07/17 02:56:22;;;;;;;5.23;1.30;;;;;;;5.96;100.00;97552.38;10409552;28;20228;-71
2022/07/17 03:01:22;;;;;;;5.93;1.47;;;;;;;5.83;100.00;97559.34;10408336;28;20223;-71
2022/07/17 03:06:23;;;;;;;3.73;1.80;;;;;;;5.81;100.00;97556.03;10404257;28;20250;-71
2022/07/17 03:11:23;;;;;;;5.10;1.50;;;;;;;5.80;100.00;97562.16;10402263;28;20270;-71
2022/07/17 03:16:23;;;;;;;5.13;1.50;;;;;;;5.73;100.00;97553.97;10401972;28;20188;-71
2022/07/17 03:21:24;;;;;;;2.50;1.23;;;;;;;5.75;100.00;97554.66;10401162;28;20189;-70
2022/07/17 03:26:24;;;;;;;3.90;1.50;;;;;;;5.75;100.00;97559.06;10401439;28;20274;-70
2022/07/17 03:31:25;;;;;;;7.33;1.20;;;;;;;5.71;100.00;97561.00;10384185;28;20544;-70
2022/07/17 03:36:25;;;;;;;2.90;1.20;;;;;;;5.73;100.00;97559.16;10401715;28;20196;-70
2022/07/17 03:41:26;;;;;;;3.60;1.60;;;;;;;5.72;100.00;97573.09;10401245;28;20215;-71
2022/07/17 03:46:27;;;;;;;3.97;1.50;;;;;;;5.69;100.00;97574.13;10383647;28;20200;-70
2022/07/17 03:51:27;;;;;;;7.67;1.67;;;;;;;5.69;100.00;97568.09;10400832;28;20188;-70
2022/07/17 03:56:27;;;;;;;9.53;1.70;;;;;;;5.78;100.00;97580.47;10401569;28;20200;-70
2022/07/17 04:01:28;;;;;;;1.53;1.40;;;;;;;5.76;100.00;97579.75;10402942;28;20192;-70
2022/07/17 04:06:28;;;;;;;4.13;1.90;;;;;;;5.85;100.00;97583.47;10398813;28;20236;-71
2022/07/17 04:11:28;;;;;;;3.17;1.70;;;;;;;5.92;100.00;97592.50;10415665;28;20199;-70
2022/07/17 04:16:29;;;;;;;5.33;1.50;;;;;;;6.06;100.00;97592.44;10415956;28;20722;-70
2022/07/17 04:21:29;;;;;;;3.20;1.20;;;;;;;6.20;100.00;97578.47;10415139;28;20545;-70
2022/07/17 04:26:29;;;;;;;1.40;1.30;;;;;;;6.47;100.00;97581.84;10416110;28;20639;-70
2022/07/17 04:31:30;;;;;;;3.30;1.70;;;;;;;6.56;100.00;97583.78;10414713;28;20611;-70
2022/07/17 04:36:30;;;;;;;1.50;1.30;;;;;;;6.76;100.00;97593.56;10414690;28;20679;-70
2022/07/17 04:41:30;;;;;;;3.40;1.50;;;;;;;6.91;100.00;97588.22;10414144;28;20660;-70
2022/07/17 04:46:31;;;;;;;4.67;1.40;;;;;;;7.20;100.00;97590.44;10414461;28;20684;-70
2022/07/17 04:51:31;;;;;;;7.47;1.63;;;;;;;7.46;100.00;97596.34;10414044;28;20673;-70
2022/07/17 04:56:31;;;;;;;3.80;1.57;;;;;;;7.72;100.00;97599.59;10413686;28;20756;-70
2022/07/17 05:01:32;;;;;;;5.23;1.20;;;;;;;7.94;100.00;97590.13;10413840;28;20653;-70
2022/07/17 05:06:33;;;;;;;6.70;1.37;;;;;;;8.19;100.00;97587.25;10412857;28;20347;-70
2022/07/17 05:11:33;;;;;;;6.80;1.27;;;;;;;8.47;100.00;97587.72;10412697;28;20192;-70
2022/07/17 05:16:33;;;;;;;4.37;1.43;;;;;;;8.79;100.00;97593.94;10412183;28;20189;-71
2022/07/17 05:21:34;;;;;;;7.83;1.43;;;;;;;9.05;100.00;97594.44;10412735;28;20192;-70
2022/07/17 05:26:34;;;;;;;7.10;1.53;;;;;;;9.28;100.00;97587.34;10412467;28;20200;-70
2022/07/17 05:31:35;;;;;;;4.07;1.57;;;;;;;9.65;100.00;97581.66;10411786;28;20192;-71
2022/07/17 05:36:35;;;;;;;4.23;1.23;;;;;;;10.05;100.00;97580.88;10413024;28;20718;-71
2022/07/17 05:41:35;;;;;;;6.73;1.27;;;;;;;10.43;100.00;97582.00;10412127;28;20673;-71
2022/07/17 05:46:36;;;;;;;3.33;1.17;;;;;;;10.94;99.16;97574.09;10410539;28;20672;-71
2022/07/17 05:51:36;;;;;;;3.43;1.40;;;;;;;11.45;96.94;97567.69;10413690;28;20181;-71
2022/07/17 05:56:36;;;;;;;3.50;1.17;;;;;;;11.94;91.00;97552.69;10413117;28;20197;-71
2022/07/17 06:01:37;;;;;;;4.00;1.33;;;;;;;12.50;86.73;97536.91;10412849;28;20303;-71
2022/07/17 06:06:37;;;;;;;8.55;1.30;;;;;;;13.07;82.13;97517.38;10412557;28;20236;-71
2022/07/17 06:11:38;;;;;;;5.47;1.25;;;;;;;13.29;79.67;97506.38;10412722;28;20247;-71
2022/07/17 06:16:38;;;;;;;6.85;1.27;;;;;;;13.26;76.39;97471.63;10412189;28;20228;-71
2022/07/17 06:21:38;;;;;;;3.30;1.23;;;;;;;14.00;78.01;97527.38;10412163;28;20192;-70
2022/07/17 06:26:39;;;;;;;5.93;1.52;;;;;;;14.48;74.56;97477.59;10411082;28;20188;-70
2022/07/17 06:31:40;;;;;;;7.47;1.40;;;;;;;15.72;70.40;97436.13;10411497;28;20374;-71
2022/07/17 06:36:41;;;;;;;5.90;1.25;;;;;;;16.48;66.10;97383.50;10411584;28;20548;-71
2022/07/17 06:41:41;;;;;;;4.30;1.65;;;;;;;15.49;68.40;97429.72;10393435;28;20195;-71
2022/07/17 06:46:42;;;;;;;7.95;1.52;;;;;;;15.42;69.92;97456.97;10393363;28;20216;-70
2022/07/17 06:51:45;;;;;;;6.38;1.23;;;;;;;15.92;69.00;97465.63;10411298;28;20195;-71
2022/07/17 06:56:46;;;;;;;3.70;1.00;;;;;;;17.88;62.31;97376.75;10410539;28;20669;-71
2022/07/17 07:01:46;;;;;;;3.80;0.93;;;;;;;16.87;61.82;97369.31;10410862;28;20188;-71
2022/07/17 07:06:46;;;;;;;6.10;1.20;;;;;;;17.62;61.39;97386.03;10409476;28;20240;-71
2022/07/17 07:11:47;;;;;;;7.60;1.60;;;;;;;17.50;60.77;97376.91;10410419;28;20200;-71
2022/07/17 07:16:47;;;;;;;2.17;1.02;;;;;;;19.52;56.16;97328.88;10409938;28;20235;-71
2022/07/17 07:22:16;;;;;;;6.15;1.30;;;;;;;18.56;58.04;97369.31;10409920;28;20196;-71
2022/07/17 07:27:17;;;;;;;9.80;1.48;;;;;;;20.05;53.99;97311.50;10409515;28;20193;-71
2022/07/17 07:32:17;;;;;;;5.50;1.20;;;;;;;20.96;51.00;97268.25;10409829;28;20200;-71
2022/07/17 07:37:17;;;;;;;2.90;1.05;;;;;;;19.87;53.35;97312.88;10408784;28;20208;-71
2022/07/17 07:42:18;;;;;;;8.70;1.30;;;;;;;18.91;55.80;97365.94;10408871;28;20199;-71
2022/07/17 07:47:18;;;;;;;5.88;1.20;;;;;;;19.22;54.56;97350.41;10408824;28;20216;-71
2022/07/17 07:52:19;;;;;;;5.18;1.00;;;;;;;19.99;52.81;97322.94;10406466;28;20185;-71
2022/07/17 07:57:19;;;;;;;3.17;1.00;;;;;;;19.87;53.55;97349.28;10405218;28;20231;-71
2022/07/17 08:02:19;;;;;;;3.92;1.38;;;;;;;19.51;53.06;97315.78;10406012;28;20215;-71
2022/07/17 08:07:20;;;;;;;5.95;1.27;;;;;;;20.22;52.29;97311.91;10405957;28;20221;-71
2022/07/17 08:12:21;;;;;;;6.82;1.50;;;;;;;19.50;54.68;97368.13;10388021;28;20200;-71
2022/07/17 08:17:21;;;;;;;5.95;1.17;;;;;;;20.37;50.14;97274.44;10406133;28;20574;-71
2022/07/17 08:22:22;;;;;;;3.72;1.40;;;;;;;18.75;54.49;97343.94;10405545;28;20192;-71
2022/07/17 08:27:22;;;;;;;5.88;1.02;;;;;;;20.26;51.59;97316.63;10406876;28;20181;-71
2022/07/17 08:32:22;;;;;;;5.97;1.25;;;;;;;19.36;53.22;97342.50;10405915;28;20234;-71
2022/07/17 08:37:24;;;;;;;5.28;1.50;;;;;;;19.36;52.66;97316.75;10405536;28;20818;-71
2022/07/17 08:42:31;;;;;;;7.60;1.63;;;;;;;18.70;53.09;97317.16;10406834;28;20192;-71
2022/07/17 08:47:32;;;;;;;3.35;1.13;;;;;;;19.69;50.35;97281.50;10406078;28;20720;-71
2022/07/17 08:52:32;;;;;;;2.83;1.13;;;;;;;21.33;47.63;97251.72;10395760;28;20193;-71
2022/07/17 08:57:32;;;;;;;5.28;1.40;;;;;;;22.33;48.31;97314.41;10413798;28;20332;-72
2022/07/17 09:02:33;;;;;;;5.35;1.15;;;;;;;21.49;49.65;97319.75;10414007;28;20228;-72
2022/07/17 09:07:33;;;;;;;5.80;1.23;;;;;;;19.98;49.83;97279.53;10413296;28;20224;-72
2022/07/17 09:12:34;;;;;;;6.65;1.27;;;;;;;21.54;48.90;97303.97;10412833;28;20192;-71
2022/07/17 09:17:34;;;;;;;3.45;1.05;;;;;;;21.38;44.70;97186.09;10410611;28;20246;-72
2022/07/17 09:22:35;;;;;;;4.78;1.25;;;;;;;19.88;45.16;97139.03;10411820;28;20254;-71
2022/07/17 09:27:35;;;;;;;6.50;1.27;;;;;;;21.46;46.30;97246.34;10415464;28;20188;-71
2022/07/17 09:32:38;;;;;;;5.25;1.20;;;;;;;21.87;46.32;97258.47;10412984;28;20204;-71
2022/07/17 09:37:38;;;;;;;4.43;1.20;;;;;;;23.44;42.18;97187.06;10411389;28;20617;-72
2022/07/17 09:42:38;;;;;;;3.97;1.20;;;;;;;24.88;40.14;97189.66;10412734;28;20192;-72
2022/07/17 09:47:39;;;;;;;3.35;1.08;;;;;;;23.68;42.46;97200.53;10410976;28;20188;-72
2022/07/17 09:52:40;;;;;;;4.63;1.08;;;;;;;23.24;42.32;97179.31;10411827;28;20220;-72
2022/07/17 09:57:41;;;;;;;8.88;1.20;;;;;;;23.22;41.87;97193.97;10392873;28;20220;-72
2022/07/17 10:02:43;;;;;;;7.45;1.30;;;;;;;23.43;42.17;97200.66;10410950;28;20251;-73
2022/07/17 10:07:45;;;;;;;5.90;1.30;;;;;;;22.68;44.00;97229.28;10410916;28;20212;-72
2022/07/17 10:12:48;;;;;;;4.13;1.15;;;;;;;23.07;42.97;97210.34;10411159;28;20192;-72
2022/07/17 10:17:49;;;;;;;8.43;1.05;;;;;;;21.88;44.02;97189.91;10393239;28;20313;-72
2022/07/17 10:22:51;;;;;;;5.03;1.10;;;;;;;23.96;39.42;97137.56;10410744;28;20204;-72
2022/07/17 10:27:54;;;;;;;5.72;1.25;;;;;;;24.91;38.97;97144.44;10409628;28;20185;-72
2022/07/17 10:33:05;;;;;;;4.38;1.42;;;;;;;23.86;40.06;97136.25;10410781;28;20204;-72
2022/07/17 10:38:12;;;;;;;2.83;1.25;;;;;;;24.70;39.04;97140.56;10409539;28;20227;-72
2022/07/17 10:43:13;;;;;;;6.50;1.67;;;;;;;26.07;37.18;97139.00;10408217;28;20567;-72
2022/07/17 10:48:19;;;;;;;5.63;1.03;;;;;;;24.91;38.36;97109.59;10403372;28;20196;-72
2022/07/17 10:53:33;;;;;;;5.45;1.50;;;;;;;25.33;37.77;97129.16;10390055;28;20899;-73
2022/07/17 10:58:38;;;;;;;4.00;1.25;;;;;;;23.56;40.44;97151.53;10407836;28;20581;-72
2022/07/17 11:03:51;;;;;;;11.38;1.38;;;;;;;22.74;40.17;97126.06;10389025;28;20228;-72
2022/07/17 11:08:57;;;;;;;8.95;1.40;;;;;;;23.59;40.12;97159.91;10405297;28;20212;-72
2022/07/17 11:14:10;;;;;;;3.20;1.02;;;;;;;25.90;34.60;97064.63;10407293;28;20520;-72
2022/07/17 11:19:11;;;;;;;2.38;0.98;;;;;;;26.63;34.72;97101.31;10359296;28;20311;-72
2022/07/17 11:24:11;;;;;;;3.78;1.15;;;;;;;25.44;35.52;97082.69;10367170;28;20326;-72
2022/07/17 11:29:12;;;;;;;4.13;1.02;;;;;;;25.38;36.27;97107.81;10367227;28;20274;-72
2022/07/17 11:34:12;;;;;;;3.20;1.17;;;;;;;25.81;33.46;97031.22;10349172;28;20778;-72
2022/07/17 11:39:15;;;;;;;3.15;1.17;;;;;;;26.48;33.09;97035.59;10366825;28;20324;-72
2022/07/17 11:44:18;;;;;;;4.38;1.30;;;;;;;24.84;35.14;97036.59;10349444;28;20227;-72
2022/07/17 11:49:25;;;;;;;2.47;1.10;;;;;;;24.94;35.55;97060.06;10348378;28;20605;-72
2022/07/17 11:54:26;;;;;;;2.13;1.30;;;;;;;24.93;35.88;97078.03;10388142;28;20339;-72
2022/07/17 11:59:31;;;;;;;5.45;1.08;;;;;;;26.30;35.67;97116.50;10386210;28;20579;-73
2022/07/17 12:04:32;;;;;;;2.00;1.00;;;;;;;27.40;32.97;97078.00;10404227;28;20319;-73
2022/07/17 12:09:33;;;;;;;3.95;1.30;;;;;;;27.26;34.78;97120.63;10388270;28;20585;-73
2022/07/17 12:14:33;;;;;;;6.35;1.58;;;;;;;27.33;34.67;97113.16;10407590;28;20284;-73
2022/07/17 12:19:34;;;;;;;2.95;1.33;;;;;;;26.69;33.86;97055.50;10406476;28;20574;-72
2022/07/17 12:24:43;;;;;;;3.53;1.13;;;;;;;26.73;34.12;97069.22;10377324;28;20193;-73
2022/07/17 12:29:44;;;;;;;5.05;1.20;;;;;;;24.07;37.92;97071.69;10397083;28;20184;-72
2022/07/17 12:34:48;;;;;;;4.68;1.00;;;;;;;26.33;36.37;97130.25;10396802;28;20234;-73
2022/07/17 12:39:49;;;;;;;3.97;1.13;;;;;;;26.95;33.01;97025.38;10414390;28;20217;-73
2022/07/17 12:44:49;;;;;;;4.68;0.98;;;;;;;27.63;32.02;97024.88;10413482;28;20204;-73
2022/07/17 12:49:50;;;;;;;3.85;1.10;;;;;;;28.14;32.55;97052.16;10395269;28;20258;-73
2022/07/17 12:54:50;;;;;;;4.77;1.20;;;;;;;27.91;31.73;97016.44;10413648;28;20199;-72
2022/07/17 12:59:50;;;;;;;3.07;1.00;;;;;;;28.68;30.70;97007.91;10413321;28;20578;-72
2022/07/17 13:04:51;;;;;;;2.70;1.00;;;;;;;27.37;32.60;97022.81;10412873;28;20605;-72
2022/07/17 13:09:51;;;;;;;3.50;1.00;;;;;;;27.47;31.58;96978.22;10412571;28;20455;-73
2022/07/17 13:14:51;;;;;;;5.07;0.80;;;;;;;27.35;31.69;96995.38;10395737;28;20439;-73
2022/07/17 13:19:52;;;;;;;2.90;0.77;;;;;;;29.24;29.32;96993.72;10412704;28;20617;-73
2022/07/17 13:24:52;;;;;;;5.30;1.10;;;;;;;27.38;29.14;96894.47;10412691;28;20439;-73
2022/07/17 13:29:52;;;;;;;3.50;0.90;;;;;;;27.15;31.92;96997.84;10412235;28;20450;-73
2022/07/17 13:34:53;;;;;;;4.23;0.83;;;;;;;26.40;31.18;96911.66;10393792;28;20566;-72
2022/07/17 13:39:53;;;;;;;2.23;1.03;;;;;;;24.97;33.73;96963.09;10412035;28;20483;-72
2022/07/17 13:44:54;;;;;;;3.47;0.90;;;;;;;28.13;29.87;96968.91;10411662;28;20470;-73
2022/07/17 13:49:54;;;;;;;4.50;1.17;;;;;;;28.28;30.60;97004.00;10411530;28;20537;-73
2022/07/17 13:54:55;;;;;;;4.15;1.17;;;;;;;26.41;31.31;96899.84;10411789;28;20454;-72
2022/07/17 13:59:56;;;;;;;5.78;0.77;;;;;;;27.77;31.65;97004.53;10393142;28;20244;-72
2022/07/17 14:04:57;;;;;;;3.45;0.93;;;;;;;31.10;26.00;96934.38;10411248;28;20236;-72
2022/07/17 14:09:57;;;;;;;4.53;0.83;;;;;;;32.30;24.34;96886.78;10410509;28;20209;-72
2022/07/17 14:14:57;;;;;;;6.70;1.25;;;;;;;33.90;24.28;96963.69;10410798;28;20750;-72
2022/07/17 14:19:58;;;;;;;3.90;1.00;;;;;;;32.31;24.85;96875.63;10410226;28;20318;-73
2022/07/17 14:24:58;;;;;;;2.20;0.90;;;;;;;27.35;30.80;96948.81;10410421;28;20443;-72
2022/07/17 14:29:59;;;;;;;1.73;0.70;;;;;;;32.47;26.19;96992.03;10409111;28;20479;-72
2022/07/17 14:34:59;;;;;;;2.90;1.07;;;;;;;32.82;25.31;96939.19;10409419;28;20196;-72
2022/07/17 14:40:00;;;;;;;1.57;0.97;;;;;;;32.89;25.67;96933.38;10408324;28;20460;-73
2022/07/17 14:45:01;;;;;;;6.57;1.25;;;;;;;34.86;23.25;96931.19;10409282;28;20188;-72
2022/07/17 14:50:02;;;;;;;5.40;0.80;;;;;;;31.46;26.63;96872.56;10390560;28;20223;-73
2022/07/17 14:55:03;;;;;;;4.07;1.20;;;;;;;28.57;27.01;96769.03;10408673;28;20530;-72
2022/07/17 15:00:04;;;;;;;2.67;0.85;;;;;;;31.84;25.93;96907.13;10408751;28;20196;-72
2022/07/17 15:05:05;;;;;;;1.38;0.70;;;;;;;33.11;22.81;96798.91;10407908;28;20226;-72
2022/07/17 15:10:06;;;;;;;2.40;0.70;;;;;;;34.64;22.60;96919.16;10407488;28;20227;-72
2022/07/17 15:15:07;;;;;;;4.05;0.80;;;;;;;31.27;24.70;96804.00;10390340;28;20716;-71
2022/07/17 15:20:08;;;;;;;4.07;1.02;;;;;;;30.13;27.50;96923.06;10408492;28;20177;-72
2022/07/17 15:25:09;;;;;;;3.95;1.23;;;;;;;32.77;23.54;96876.03;10407716;28;20653;-72
2022/07/17 15:30:10;;;;;;;4.85;1.00;;;;;;;33.24;23.39;96882.31;10408036;28;20248;-72
2022/07/17 15:35:10;;;;;;;2.45;0.93;;;;;;;33.38;23.39;96885.84;10407426;28;20690;-72
2022/07/17 15:40:11;;;;;;;2.08;0.60;;;;;;;32.77;23.98;96892.31;10407502;28;20212;-72
2022/07/17 15:45:11;;;;;;;2.88;1.60;;;;;;;33.33;24.84;96950.34;10408097;28;20183;-72
2022/07/17 15:50:12;;;;;;;4.25;0.90;;;;;;;33.05;24.08;96904.88;10407887;28;20227;-72
2022/07/17 15:55:12;;;;;;;3.97;1.13;;;;;;;33.64;24.50;96941.63;10407518;28;20188;-72
2022/07/17 16:00:13;;;;;;;2.45;1.20;;;;;;;30.69;26.52;96880.56;10412857;28;20442;-72
2022/07/17 16:05:13;;;;;;;3.70;0.90;;;;;;;30.17;26.85;96837.66;10415796;28;20232;-72
2022/07/17 16:10:13;;;;;;;4.00;0.90;;;;;;;30.29;26.75;96863.50;10413110;28;20239;-72
2022/07/17 16:15:14;;;;;;;2.10;0.90;;;;;;;28.77;27.76;96828.34;10415579;28;20567;-72
2022/07/17 16:20:14;;;;;;;2.40;1.10;;;;;;;28.79;27.39;96838.88;10414653;28;20439;-71
2022/07/17 16:25:14;;;;;;;1.77;0.87;;;;;;;28.74;25.82;96782.25;10415249;28;20546;-71
2022/07/17 16:30:15;;;;;;;2.28;0.75;;;;;;;27.25;27.80;96773.88;10414698;28;20487;-71
2022/07/17 16:35:15;;;;;;;2.63;0.95;;;;;;;26.68;26.37;96692.94;10414622;28;20473;-72
2022/07/17 16:40:15;;;;;;;2.53;0.95;;;;;;;27.50;26.29;96736.31;10413705;28;20204;-72
2022/07/17 16:45:16;;;;;;;3.27;1.00;;;;;;;26.04;29.00;96790.47;10414460;28;20196;-72
2022/07/17 16:50:16;;;;;;;2.40;0.83;;;;;;;25.63;30.71;96841.78;10413656;28;20620;-71
2022/07/17 16:55:17;;;;;;;4.85;0.80;;;;;;;25.51;31.51;96878.66;10413796;28;20443;-72
2022/07/17 17:00:17;;;;;;;3.47;1.10;;;;;;;25.64;31.30;96864.88;10395425;28;20212;-71
2022/07/17 17:05:17;;;;;;;4.97;1.00;;;;;;;25.53;29.93;96836.28;10412875;28;20274;-71
2022/07/17 17:10:18;;;;;;;2.38;1.10;;;;;;;24.51;30.45;96813.09;10412060;28;20236;-71
2022/07/17 17:15:18;;;;;;;4.50;1.63;;;;;;;23.92;32.28;96863.44;10413249;28;20199;-71
2022/07/17 17:20:19;;;;;;;2.78;1.30;;;;;;;23.95;33.31;96911.13;10413218;28;20671;-71
2022/07/17 17:25:20;;;;;;;3.03;1.42;;;;;;;23.90;33.45;96913.72;10412947;28;20575;-71
2022/07/17 17:30:20;;;;;;;3.33;1.45;;;;;;;23.99;34.11;96945.19;10413026;28;20311;-71
2022/07/17 17:35:20;;;;;;;4.30;1.20;;;;;;;22.81;34.70;96918.44;10412324;28;20218;-71
2022/07/17 17:40:21;;;;;;;4.47;1.45;;;;;;;22.44;36.19;96956.78;10412110;28;20247;-71
2022/07/17 17:45:22;;;;;;;2.67;1.58;;;;;;;22.25;36.88;96985.34;10395185;28;20192;-71
2022/07/17 17:50:22;;;;;;;8.15;1.63;;;;;;;22.35;36.46;96984.03;10411353;28;20216;-71
2022/07/17 17:55:22;;;;;;;2.28;1.35;;;;;;;22.32;37.34;97019.16;10412249;28;20358;-71
2022/07/17 18:00:23;;;;;;;3.83;1.50;;;;;;;22.08;38.12;97035.81;10411248;28;20267;-71
2022/07/17 18:05:24;;;;;;;5.15;1.65;;;;;;;21.81;39.18;97067.28;10393963;28;20233;-71
2022/07/17 18:16:33;;;;;;;3.10;1.00;;;;;;;20.10;45.71;97216.75;10397965;28;20212;-71
2022/07/17 18:21:33;;;;;;;2.40;1.10;;;;;;;20.02;45.58;97216.97;10409320;28;20204;-71
2022/07/17 18:26:34;;;;;;;1.52;0.88;;;;;;;19.29;48.53;97273.38;10390534;28;20208;-70
2022/07/17 18:31:35;;;;;;;3.22;1.27;;;;;;;18.84;50.69;97313.56;10407099;28;20208;-70
2022/07/17 18:36:35;;;;;;;4.32;1.17;;;;;;;18.61;51.57;97323.63;10408604;28;20202;-71
2022/07/17 18:41:35;;;;;;;5.05;1.30;;;;;;;17.96;52.49;97331.59;10408312;28;20242;-70
2022/07/17 18:46:36;;;;;;;6.97;1.27;;;;;;;16.71;54.88;97357.03;10408950;28;20193;-70
2022/07/17 18:51:37;;;;;;;3.13;1.25;;;;;;;15.95;57.07;97386.81;10407797;28;20216;-70
2022/07/17 18:56:37;;;;;;;5.45;1.23;;;;;;;15.98;57.06;97381.19;10408354;28;20243;-70
2022/07/17 19:01:38;;;;;;;5.22;1.10;;;;;;;15.66;58.64;97398.81;10408089;28;20199;-72
2022/07/17 19:06:38;;;;;;;4.75;1.20;;;;;;;15.08;60.22;97429.00;10407050;28;20243;-72
2022/07/17 19:11:39;;;;;;;3.58;1.20;;;;;;;15.15;61.12;97444.00;10407612;28;20591;-70
2022/07/17 19:16:39;;;;;;;3.10;1.30;;;;;;;15.00;61.12;97436.94;10407791;28;20200;-71
2022/07/17 19:21:40;;;;;;;2.63;1.23;;;;;;;15.00;60.92;97427.22;10406592;28;20289;-71
2022/07/17 19:26:40;;;;;;;4.50;1.27;;;;;;;14.93;60.42;97416.50;10407682;28;20192;-71
2022/07/17 19:31:40;;;;;;;2.67;1.23;;;;;;;14.83;60.68;97421.13;10405950;28;20642;-71
2022/07/17 19:36:41;;;;;;;2.33;1.17;;;;;;;14.65;61.59;97444.19;10406456;28;20215;-71
2022/07/17 19:41:41;;;;;;;3.60;1.50;;;;;;;14.58;61.51;97444.81;10406836;28;20188;-71
2022/07/17 19:46:41;;;;;;;2.88;1.30;;;;;;;14.32;61.93;97444.97;10406922;28;20264;-71
2022/07/17 19:51:42;;;;;;;3.95;1.33;;;;;;;14.32;61.93;97444.97;10406432;28;20223;-71
2022/07/17 19:56:42;;;;;;;4.70;1.15;;;;;;;14.20;62.56;97454.97;10406507;28;20189;-71
2022/07/17 20:01:43;;;;;;;1.67;1.05;;;;;;;14.09;63.02;97457.91;10404795;28;20238;-71
2022/07/17 20:06:43;;;;;;;1.98;1.20;;;;;;;13.95;63.37;97466.41;10403762;28;20231;-71
2022/07/17 20:11:43;;;;;;;4.60;1.50;;;;;;;13.76;63.94;97476.22;10402910;28;20216;-71
2022/07/17 20:16:44;;;;;;;2.22;1.30;;;;;;;13.69;64.00;97480.47;10403471;28;20196;-71
2022/07/17 20:21:44;;;;;;;2.60;1.30;;;;;;;13.53;64.73;97486.47;10403776;28;20551;-70
2022/07/17 20:26:44;;;;;;;2.55;1.23;;;;;;;13.41;65.01;97487.72;10401646;28;20465;-70
2022/07/17 20:31:45;;;;;;;3.05;1.13;;;;;;;13.23;65.62;97490.34;10403666;28;20326;-70
2022/07/17 20:36:48;;;;;;;2.78;1.40;;;;;;;12.98;66.38;97508.59;10404084;28;20192;-70
2022/07/17 20:41:49;;;;;;;3.63;1.20;;;;;;;12.88;66.60;97506.06;10406329;28;20282;-70
2022/07/17 20:46:52;;;;;;;2.85;1.30;;;;;;;12.66;68.12;97525.72;10409816;28;20192;-71
2022/07/17 20:51:52;;;;;;;7.10;1.63;;;;;;;12.63;68.05;97510.25;10414311;28;20796;-71
2022/07/17 20:56:53;;;;;;;1.65;1.02;;;;;;;12.47;68.53;97526.69;10413482;28;20276;-70
2022/07/17 21:01:53;;;;;;;2.90;1.27;;;;;;;12.32;68.87;97527.19;10413977;28;20311;-70
2022/07/17 21:06:53;;;;;;;3.85;0.80;;;;;;;12.30;69.41;97531.75;10413446;28;20298;-70
2022/07/17 21:11:54;;;;;;;2.72;1.30;;;;;;;12.23;69.47;97524.63;10413761;28;20389;-70
2022/07/17 21:16:54;;;;;;;3.42;1.20;;;;;;;12.18;69.88;97532.94;10413080;28;20278;-70
2022/07/17 21:21:54;;;;;;;2.17;1.30;;;;;;;12.02;70.91;97544.09;10413673;28;20232;-70
2022/07/17 21:26:55;;;;;;;4.18;1.45;;;;;;;11.88;71.68;97541.88;10413256;28;20216;-70
2022/07/17 21:31:55;;;;;;;2.78;1.00;;;;;;;11.75;72.04;97556.16;10413229;28;20203;-70
2022/07/17 21:36:56;;;;;;;2.60;1.25;;;;;;;11.69;71.92;97558.53;10412287;28;20184;-70
2022/07/17 21:41:56;;;;;;;3.95;1.02;;;;;;;11.63;72.47;97559.09;10412861;28;20231;-70
2022/07/17 21:46:57;;;;;;;3.07;1.00;;;;;;;11.46;73.10;97568.53;10411959;28;20568;-70
2022/07/17 21:51:57;;;;;;;4.53;1.23;;;;;;;11.36;74.30;97563.28;10412626;28;20627;-70
2022/07/17 21:56:57;;;;;;;3.67;1.33;;;;;;;11.19;74.57;97570.06;10411425;28;20188;-70
2022/07/17 22:01:58;;;;;;;4.30;1.25;;;;;;;11.19;74.48;97567.44;10411742;28;20230;-70
2022/07/17 22:06:58;;;;;;;1.97;1.20;;;;;;;11.13;75.22;97553.09;10410971;28;20236;-70
2022/07/17 22:11:59;;;;;;;3.07;1.27;;;;;;;11.03;75.50;97560.97;10411532;28;20194;-70
2022/07/17 22:16:59;;;;;;;5.80;1.30;;;;;;;10.95;75.66;97560.00;10410679;28;20196;-70
2022/07/17 22:22:00;;;;;;;3.42;1.30;;;;;;;10.83;75.90;97549.66;10411503;28;20225;-70
2022/07/17 22:27:00;;;;;;;1.40;1.10;;;;;;;10.84;76.65;97551.31;10409956;28;20192;-70
2022/07/17 22:32:02;;;;;;;2.53;1.30;;;;;;;10.74;76.89;97547.84;10410945;28;20668;-70
2022/07/17 22:37:03;;;;;;;2.70;1.20;;;;;;;10.66;77.28;97545.91;10410089;28;20200;-70
2022/07/17 22:42:03;;;;;;;4.40;1.17;;;;;;;10.67;77.01;97536.25;10409869;28;20226;-70
2022/07/17 22:47:03;;;;;;;2.43;1.10;;;;;;;10.59;77.33;97542.19;10410239;28;20188;-70
2022/07/17 22:52:04;;;;;;;3.33;1.10;;;;;;;10.43;78.46;97541.88;10409697;28;20212;-70
2022/07/17 22:57:04;;;;;;;3.07;1.10;;;;;;;10.45;78.00;97530.31;10409623;28;20195;-71
2022/07/17 23:02:05;;;;;;;2.70;1.27;;;;;;;10.30;78.99;97542.91;10409414;28;20268;-70
2022/07/17 23:07:06;;;;;;;2.60;1.17;;;;;;;10.33;78.23;97536.63;10408221;28;20217;-70
2022/07/17 23:12:06;;;;;;;2.23;1.40;;;;;;;10.21;79.57;97538.47;10409470;28;20512;-70
2022/07/17 23:17:07;;;;;;;7.40;1.13;;;;;;;10.25;78.47;97525.97;10408482;28;20190;-70
2022/07/17 23:22:07;;;;;;;2.37;1.20;;;;;;;10.18;79.24;97533.50;10409301;28;20566;-70